Time;durP1;ratioP1;P1;durP2;ratioP2;P2;SDS_P1;SDS_P2;PMS_P1;PMS_P2;Temp;Humidity;BMP_temperature;BMP_pressure;BME280_temperature;BME280_humidity;BME280_pressure;Samples;Min_cycle;Max_cycle;Signal;HPM_P1;HPM_P2
2021/12/13 00:02:01;;;;;;;14.37;11.50;;;12.80;86.00;;;15.83;63.63;102202.72;5052846;28;20217;-49
2021/12/13 00:04:36;;;;;;;12.83;11.53;;;12.80;86.00;;;15.83;63.36;102197.41;5035296;28;20198;-49
2021/12/13 00:07:14;;;;;;;12.53;10.73;;;12.80;86.00;;;15.82;63.53;102200.25;5034475;28;20192;-51
2021/12/13 00:09:48;;;;;;;12.67;11.30;;;12.90;86.10;;;15.83;63.45;102205.38;5034545;28;20202;-51
2021/12/13 00:12:21;;;;;;;10.63;9.37;;;12.90;86.20;;;15.81;63.40;102198.63;5034943;28;20212;-50
2021/12/13 00:14:53;;;;;;;12.27;10.47;;;12.90;86.30;;;15.81;63.65;102199.44;5035174;28;20684;-48
2021/12/13 00:17:25;;;;;;;13.87;11.07;;;12.90;86.30;;;15.83;63.96;102202.72;5034865;28;20216;-51
2021/12/13 00:19:59;;;;;;;14.03;12.23;;;12.80;86.20;;;15.85;63.86;102200.75;5042474;28;20194;-50
2021/12/13 00:22:41;;;;;;;12.47;11.17;;;12.90;86.30;;;15.83;63.47;102202.72;5055241;28;20209;-51
2021/12/13 00:25:16;;;;;;;13.13;11.50;;;12.90;86.30;;;15.87;63.53;102204.06;5054942;28;20582;-50
2021/12/13 00:27:52;;;;;;;13.13;11.53;;;12.90;86.40;;;15.87;63.54;102198.75;5053380;28;20633;-49
2021/12/13 00:30:31;;;;;;;13.07;10.63;;;12.90;86.50;;;15.85;63.56;102206.06;5055009;28;20202;-50
2021/12/13 00:33:12;;;;;;;13.70;10.70;;;12.90;86.60;;;15.85;63.50;102200.75;5057462;28;20269;-52
2021/12/13 00:35:48;;;;;;;11.57;9.50;;;12.90;86.60;;;15.86;63.98;102206.88;5053582;28;20198;-53
2021/12/13 00:38:22;;;;;;;11.90;9.67;;;12.90;86.60;;;15.88;63.52;102210.22;5038910;28;20216;-50
2021/12/13 00:41:00;;;;;;;13.47;11.63;;;12.90;86.60;;;15.89;63.67;102211.84;5033189;28;20194;-52
2021/12/13 00:43:36;;;;;;;15.30;11.33;;;12.90;87.40;;;15.90;63.87;102208.22;5033529;28;20205;-51
2021/12/13 00:46:10;;;;;;;13.77;11.13;;;12.90;86.60;;;15.92;63.88;102212.34;5033315;28;20198;-49
2021/12/13 00:48:42;;;;;;;13.93;11.67;;;12.90;86.70;;;15.93;63.74;102213.97;5032803;28;20218;-49
2021/12/13 00:51:15;;;;;;;16.80;11.33;;;12.90;86.70;;;15.96;63.95;102216.31;5053148;28;20202;-51
2021/12/13 00:53:49;;;;;;;14.53;12.10;;;13.00;86.90;;;15.98;63.88;102216.13;5053192;28;20194;-51
2021/12/13 00:56:58;;;;;;;16.43;13.13;;;13.00;86.90;;;15.93;63.91;102215.81;5053109;28;20190;-50
2021/12/13 00:59:30;;;;;;;11.57;9.70;;;13.00;87.20;;;15.96;63.92;102223.44;5050416;28;20206;-50
2021/12/13 01:02:03;;;;;;;19.27;13.60;;;13.00;87.00;;;16.00;63.71;102220.25;5053063;28;20655;-49
2021/12/13 01:05:00;;;;;;;14.57;12.20;;;13.00;87.10;;;16.00;63.54;102222.06;5051408;28;20197;-52
2021/12/13 01:08:12;;;;;;;13.13;11.00;;;13.00;87.10;;;16.02;63.81;102217.44;5056413;28;20202;-48
2021/12/13 01:11:15;;;;;;;18.00;13.90;;;13.00;87.10;;;16.03;63.71;102225.22;5056593;28;20213;-51
2021/12/13 01:14:13;;;;;;;16.90;12.17;;;13.10;86.90;;;15.99;63.87;102226.59;5056343;28;20617;-52
2021/12/13 01:16:55;;;;;;;14.60;11.73;;;13.10;86.60;;;16.04;63.65;102237.53;5056449;28;20194;-53
2021/12/13 01:19:46;;;;;;;16.10;13.10;;;13.10;86.60;;;16.04;63.95;102234.88;5056312;28;20217;-50
2021/12/13 01:25:23;;;;;;;15.10;11.97;;;13.10;86.60;;;16.07;63.67;102237.16;5056513;28;20202;-50
2021/12/13 01:28:01;;;;;;;19.03;14.20;;;13.10;86.60;;;16.06;63.75;102240.81;5054712;28;20220;-52
2021/12/13 01:30:37;;;;;;;14.63;12.43;;;13.10;86.60;;;16.08;63.66;102246.78;5056123;28;20190;-52
2021/12/13 01:33:09;;;;;;;16.67;13.37;;;13.10;86.60;;;16.11;63.47;102254.44;5056014;28;20176;-54
2021/12/13 01:35:40;;;;;;;16.50;13.23;;;13.10;86.60;;;16.12;63.45;102253.41;5056061;28;20732;-53
2021/12/13 01:38:14;;;;;;;15.70;12.13;;;13.10;86.60;;;16.12;63.68;102260.53;5055548;28;20712;-53
2021/12/13 01:40:51;;;;;;;17.53;14.13;;;13.10;86.60;;;16.09;63.56;102256.41;5054532;28;20193;-51
2021/12/13 01:43:26;;;;;;;20.20;14.27;;;13.10;86.60;;;16.09;63.71;102259.06;5055819;28;20217;-53
2021/12/13 01:45:56;;;;;;;19.23;15.17;;;13.10;86.60;;;16.10;63.76;102265.19;5055981;28;20196;-53
2021/12/13 01:48:28;;;;;;;18.17;14.03;;;13.10;86.60;;;16.10;63.85;102257.22;5055543;28;20210;-53
2021/12/13 01:51:08;;;;;;;17.63;13.57;;;13.10;86.60;;;16.09;63.58;102261.72;5055603;28;20269;-53
2021/12/13 01:53:43;;;;;;;16.40;11.67;;;13.10;86.60;;;16.08;63.73;102265.38;5055854;28;20212;-53
2021/12/13 01:59:28;;;;;;;16.17;12.87;;;13.10;86.80;;;16.06;63.93;102262.06;5039378;28;20245;-53
2021/12/13 02:02:00;;;;;;;17.07;12.70;;;13.10;86.80;;;16.06;64.04;102262.06;5035417;28;20576;-53
2021/12/13 02:04:28;;;;;;;16.40;13.20;;;13.20;87.60;;;16.09;64.07;102261.72;5035542;28;20202;-53
2021/12/13 02:07:01;;;;;;;18.00;13.37;;;13.20;86.90;;;16.09;63.99;102259.06;5048965;28;20194;-53
2021/12/13 02:09:33;;;;;;;15.77;12.77;;;13.20;87.00;;;16.11;63.83;102254.44;5055322;28;20631;-53
2021/12/13 02:12:07;;;;;;;16.93;13.40;;;13.20;86.90;;;16.13;63.94;102262.22;5055436;28;20197;-53
2021/12/13 02:14:47;;;;;;;15.10;13.10;;;13.20;87.00;;;16.16;63.64;102268.00;5053513;28;20534;-51
2021/12/13 02:17:23;;;;;;;16.47;13.50;;;13.20;87.00;;;16.16;63.87;102273.31;5055053;28;20650;-53
2021/12/13 02:20:00;;;;;;;15.63;12.87;;;13.20;86.90;;;16.18;63.93;102265.19;5073997;28;20270;-53
2021/12/13 02:22:35;;;;;;;17.63;13.60;;;13.20;87.00;;;16.19;63.65;102270.31;5055748;28;20244;-50
2021/12/13 02:25:16;;;;;;;15.67;12.93;;;13.20;87.00;;;16.19;63.95;102262.34;5055584;28;20201;-51
2021/12/13 02:27:49;;;;;;;16.63;12.93;;;13.20;86.90;;;16.23;63.72;102268.97;5055232;28;20288;-50
2021/12/13 02:30:31;;;;;;;17.53;13.37;;;13.20;86.80;;;16.24;63.83;102265.31;5055507;28;20536;-53
2021/12/13 02:33:02;;;;;;;19.17;14.30;;;13.30;86.90;;;16.25;64.01;102271.44;5055344;28;20281;-51
2021/12/13 02:35:37;;;;;;;17.97;14.03;;;13.30;86.80;;;16.26;63.94;102267.78;5055172;28;20198;-51
2021/12/13 02:38:09;;;;;;;17.80;12.57;;;13.30;86.80;;;16.26;63.74;102263.28;5054863;28;20202;-51
2021/12/13 02:40:37;;;;;;;19.33;13.77;;;13.30;86.80;;;16.28;63.94;102277.22;5054915;28;20198;-52
2021/12/13 02:43:10;;;;;;;20.70;14.37;;;13.30;86.80;;;16.28;63.65;102274.56;5054734;28;20678;-51
2021/12/13 02:45:43;;;;;;;20.33;15.00;;;13.30;86.60;;;16.31;63.71;102276.06;5054556;28;20205;-51
2021/12/13 02:48:21;;;;;;;14.90;11.80;;;13.40;86.70;;;16.31;63.82;102280.56;5054823;28;20658;-50
2021/12/13 02:50:56;;;;;;;17.37;13.57;;;13.40;86.70;;;16.31;63.67;102281.38;5054405;28;20692;-53
2021/12/13 02:53:31;;;;;;;16.40;12.63;;;13.40;86.60;;;16.31;63.74;102273.41;5055149;28;20180;-50
2021/12/13 02:55:59;;;;;;;14.30;11.67;;;13.40;86.60;;;16.35;63.75;102281.88;5055148;28;20685;-51
2021/12/13 02:58:29;;;;;;;15.63;12.47;;;13.40;86.70;;;16.37;63.77;102279.84;5054464;28;20217;-50
2021/12/13 03:01:04;;;;;;;13.30;11.50;;;13.40;86.60;;;16.36;63.66;102273.72;5054569;28;20677;-54
2021/12/13 03:03:39;;;;;;;13.60;11.53;;;13.40;86.60;;;16.36;63.70;102276.38;5054564;28;20213;-54
2021/12/13 03:06:11;;;;;;;13.93;11.10;;;13.40;86.50;;;16.37;63.65;102274.53;5054506;28;20190;-50
2021/12/13 03:08:47;;;;;;;14.13;11.33;;;13.40;86.50;;;16.36;63.76;102275.53;5044364;28;20211;-52
2021/12/13 03:11:28;;;;;;;14.07;11.97;;;13.40;86.50;;;16.35;63.66;102272.06;5034499;28;20225;-52
2021/12/13 03:14:00;;;;;;;13.60;10.20;;;13.40;86.40;;;16.35;63.45;102277.38;5034510;28;20656;-52
2021/12/13 03:16:32;;;;;;;12.60;10.53;;;13.40;86.40;;;16.34;63.59;102280.19;5034481;28;20261;-52
2021/12/13 03:19:06;;;;;;;12.33;10.30;;;13.40;86.50;;;16.35;63.60;102271.25;5033834;28;20211;-54
2021/12/13 03:22:17;;;;;;;12.80;10.57;;;13.40;86.60;;;16.30;63.42;102289.53;5034210;28;20634;-53
2021/12/13 03:25:12;;;;;;;13.63;10.97;;;13.40;86.50;;;16.28;63.46;102277.22;5046702;28;20277;-53
2021/12/13 03:28:07;;;;;;;16.23;12.40;;;13.40;86.50;;;16.27;63.61;102280.06;5053719;28;20217;-51
2021/12/13 03:30:47;;;;;;;15.80;12.40;;;13.40;86.40;;;16.24;63.40;102286.56;5053928;28;20186;-53
2021/12/13 03:33:19;;;;;;;16.23;12.40;;;13.40;86.30;;;16.27;63.88;102294.19;5053820;28;20182;-52
2021/12/13 03:35:54;;;;;;;13.63;11.47;;;13.40;86.40;;;16.28;63.57;102293.19;5054141;28;20185;-53
2021/12/13 03:38:27;;;;;;;14.10;11.13;;;13.40;86.50;;;16.33;63.56;102299.81;5053626;28;20220;-53
2021/12/13 03:41:01;;;;;;;13.33;10.83;;;13.40;87.30;;;16.34;63.73;102296.97;5053999;28;20663;-53
2021/12/13 03:43:35;;;;;;;11.57;9.87;;;13.40;86.60;;;16.36;63.53;102299.44;5052922;28;20217;-53
2021/12/13 03:46:06;;;;;;;14.47;11.97;;;13.40;86.60;;;16.37;63.79;102306.44;5053802;28;20224;-53
2021/12/13 03:48:37;;;;;;;13.20;10.70;;;13.40;86.50;;;16.38;63.99;102310.75;5053637;28;20220;-53
2021/12/13 03:51:12;;;;;;;14.90;12.10;;;13.40;86.40;;;16.38;63.62;102305.44;5053599;28;20201;-52
2021/12/13 03:53:44;;;;;;;16.87;13.83;;;13.40;86.30;;;16.36;63.53;102302.94;5053749;28;20193;-51
2021/12/13 03:56:18;;;;;;;13.90;11.53;;;13.40;86.10;;;16.35;63.61;102298.66;5054125;28;20194;-50
2021/12/13 03:58:51;;;;;;;15.33;12.17;;;13.50;86.10;;;16.36;63.68;102302.09;5053077;28;20213;-50
2021/12/13 04:01:27;;;;;;;16.73;13.27;;;13.40;86.00;;;16.36;63.43;102302.09;5043482;28;20198;-51
2021/12/13 04:04:00;;;;;;;18.13;12.80;;;13.50;86.10;;;16.38;63.35;102297.47;5033445;28;20202;-53
2021/12/13 04:06:28;;;;;;;13.77;11.83;;;13.40;86.10;;;16.39;63.49;102309.75;5033298;28;20202;-52
2021/12/13 04:08:58;;;;;;;16.70;11.70;;;13.40;86.10;;;16.39;63.36;102310.56;5033211;28;20293;-53
2021/12/13 04:11:28;;;;;;;17.67;13.90;;;13.40;86.20;;;16.42;63.28;102314.72;5033441;28;20194;-51
2021/12/13 04:14:07;;;;;;;17.93;14.03;;;13.50;86.40;;;16.40;63.39;102314.06;5033596;28;20197;-51
2021/12/13 04:16:49;;;;;;;16.53;13.70;;;13.40;86.20;;;16.40;63.31;102316.72;5033405;28;20277;-53
2021/12/13 04:19:21;;;;;;;19.10;13.87;;;13.40;86.30;;;16.40;63.39;102322.03;5034519;28;20750;-52
2021/12/13 04:21:55;;;;;;;18.93;15.17;;;13.40;86.20;;;16.39;63.49;102315.06;5033318;28;20266;-52
2021/12/13 04:24:31;;;;;;;19.13;13.97;;;13.40;86.30;;;16.39;63.63;102320.38;5043463;28;20196;-50
2021/12/13 04:27:06;;;;;;;19.13;13.37;;;13.40;86.40;;;16.39;63.56;102312.41;5053017;28;20668;-52
2021/12/13 04:29:40;;;;;;;19.00;15.30;;;13.40;86.50;;;16.38;63.40;102314.22;5053244;28;20189;-53
2021/12/13 04:32:20;;;;;;;22.30;16.33;;;13.40;86.50;;;16.37;63.62;102312.59;5053129;28;20196;-50
2021/12/13 04:34:51;;;;;;;19.80;14.03;;;13.40;86.50;;;16.38;63.58;102316.06;5053614;28;20196;-50
2021/12/13 04:37:24;;;;;;;21.17;16.77;;;13.40;86.50;;;16.39;63.67;102317.72;5051127;28;20296;-50
2021/12/13 04:39:58;;;;;;;24.10;16.47;;;13.40;86.50;;;16.38;63.66;102310.75;5053285;28;20190;-53
2021/12/13 04:42:29;;;;;;;18.73;14.50;;;13.40;86.50;;;16.38;63.58;102313.41;5056777;28;20654;-51
2021/12/13 04:45:06;;;;;;;22.33;15.40;;;13.40;86.50;;;16.39;63.72;102309.75;5056959;28;20527;-53
2021/12/13 04:47:43;;;;;;;21.17;15.37;;;13.40;86.50;;;16.43;63.59;102321.66;5056324;28;20562;-50
2021/12/13 04:50:18;;;;;;;21.07;15.17;;;13.40;86.40;;;16.43;63.40;102314.53;5056614;28;20255;-51
2021/12/13 04:52:47;;;;;;;23.77;16.37;;;13.50;86.50;;;16.42;63.47;102317.38;5056656;28;20196;-52
2021/12/13 04:55:20;;;;;;;20.70;15.90;;;13.50;86.40;;;16.41;63.67;102318.38;5041054;28;20206;-52
2021/12/13 04:57:52;;;;;;;23.83;16.63;;;13.50;86.40;;;16.41;63.52;102321.03;5036017;28;20229;-50
2021/12/13 05:00:27;;;;;;;18.90;15.50;;;13.50;86.40;;;16.42;63.41;102338.63;5036685;28;20649;-50
2021/12/13 05:03:01;;;;;;;24.17;16.53;;;13.50;86.40;;;16.44;63.70;102333.97;5036760;28;20219;-49
2021/12/13 05:05:32;;;;;;;21.67;15.50;;;13.50;86.40;;;16.45;63.47;102335.66;5036878;28;20195;-51
2021/12/13 05:08:01;;;;;;;23.80;17.50;;;13.50;86.40;;;16.47;63.50;102333.63;5036520;28;20215;-54
2021/12/13 05:10:31;;;;;;;23.53;16.40;;;13.50;86.30;;;16.47;63.62;102336.28;5036598;28;20182;-53
2021/12/13 05:13:08;;;;;;;22.07;15.43;;;13.50;86.40;;;16.43;63.36;102335.81;5036345;28;20186;-53
2021/12/13 05:15:39;;;;;;;21.33;15.67;;;13.50;86.40;;;16.43;63.61;102337.63;5036519;28;20196;-52
2021/12/13 05:18:17;;;;;;;19.60;15.53;;;13.50;86.40;;;16.42;63.50;102339.47;5036149;28;20214;-51
2021/12/13 05:20:45;;;;;;;17.27;13.93;;;13.50;86.30;;;16.43;63.72;102337.63;5036161;28;20178;-51
2021/12/13 05:23:20;;;;;;;19.90;12.90;;;13.50;86.20;;;16.42;63.44;102336.81;5041266;28;20225;-51
2021/12/13 05:25:55;;;;;;;21.63;12.80;;;13.50;86.20;;;16.44;63.30;102342.78;5056355;28;20190;-52
2021/12/13 05:28:29;;;;;;;17.07;13.60;;;13.60;86.20;;;16.47;63.36;102341.63;5055974;28;20288;-52
2021/12/13 05:31:02;;;;;;;18.33;13.47;;;13.50;86.10;;;16.49;63.54;102342.25;5061369;28;20186;-51
2021/12/13 05:33:36;;;;;;;16.77;13.67;;;13.50;86.10;;;16.51;63.14;102345.56;5056311;28;20194;-50
2021/12/13 05:36:10;;;;;;;20.97;13.63;;;13.50;86.00;;;16.52;63.11;102344.63;5055356;28;20216;-52
2021/12/13 05:38:43;;;;;;;16.73;13.23;;;13.50;86.10;;;16.53;63.09;102349.75;5055520;28;20214;-51
2021/12/13 05:41:20;;;;;;;15.60;13.13;;;13.60;86.20;;;16.52;63.21;102355.25;5054201;28;20206;-52
2021/12/13 05:43:52;;;;;;;15.10;12.33;;;13.50;86.10;;;16.52;63.28;102355.25;5055495;28;20217;-49
2021/12/13 05:46:23;;;;;;;15.47;11.47;;;13.60;86.10;;;16.54;63.21;102356.72;5055968;28;20200;-48
2021/12/13 05:48:56;;;;;;;16.83;11.87;;;13.50;86.10;;;16.52;63.33;102361.38;5055442;28;20627;-51
2021/12/13 05:51:30;;;;;;;14.87;12.30;;;13.50;86.10;;;16.51;63.30;102366.84;5055073;28;20190;-51
2021/12/13 05:54:11;;;;;;;14.70;12.10;;;13.50;86.00;;;16.47;63.03;102365.53;5055109;28;20588;-51
2021/12/13 05:56:44;;;;;;;13.77;10.93;;;13.50;86.00;;;16.46;63.19;102366.53;5055607;28;20197;-54
2021/12/13 05:59:21;;;;;;;15.07;12.60;;;13.50;85.90;;;16.43;63.19;102365.03;5053710;28;20223;-49
2021/12/13 06:02:12;;;;;;;15.80;12.17;;;13.50;85.90;;;16.38;63.41;102378.00;5055469;28;20196;-51
2021/12/13 06:04:54;;;;;;;13.53;10.80;;;13.50;85.90;;;16.40;63.63;102376.03;5055063;28;20310;-52
2021/12/13 06:07:25;;;;;;;13.67;11.30;;;13.50;85.90;;;16.38;63.67;102378.00;5054689;28;20220;-50
2021/12/13 06:10:02;;;;;;;14.00;12.43;;;13.60;86.00;;;16.35;63.70;102382.84;5054854;28;20706;-50
2021/12/13 06:12:39;;;;;;;13.50;11.30;;;13.50;85.90;;;16.38;63.35;102387.84;5054629;28;20189;-52
2021/12/13 06:15:28;;;;;;;16.37;12.27;;;13.60;86.00;;;16.37;63.51;102386.16;5055157;28;20185;-52
2021/12/13 06:18:12;;;;;;;14.00;11.53;;;13.50;85.90;;;16.42;63.44;102389.13;5040897;28;20209;-53
2021/12/13 06:20:47;;;;;;;14.40;11.33;;;13.60;86.00;;;16.46;63.20;102391.28;5054197;28;20209;-50
2021/12/13 06:23:20;;;;;;;13.60;11.03;;;13.50;85.90;;;16.50;63.41;102383.78;5054226;28;20289;-51
2021/12/13 06:25:55;;;;;;;12.00;10.47;;;13.50;85.90;;;16.51;63.21;102388.97;5055019;28;20198;-50
2021/12/13 06:28:26;;;;;;;11.17;10.03;;;13.60;86.00;;;16.54;63.37;102382.47;5054261;28;20248;-51
2021/12/13 06:31:00;;;;;;;16.30;11.17;;;13.60;85.90;;;16.54;63.23;102388.63;5054855;28;20531;-51
2021/12/13 06:33:43;;;;;;;13.67;10.53;;;13.60;85.90;;;16.55;63.38;102395.59;5054189;28;20637;-52
2021/12/13 06:36:11;;;;;;;15.40;10.93;;;13.60;85.80;;;16.55;63.01;102397.41;5054900;28;20641;-52
2021/12/13 06:38:48;;;;;;;12.23;10.90;;;13.60;85.70;;;16.54;63.19;102409.91;5053919;28;20206;-50
2021/12/13 06:41:36;;;;;;;12.33;10.20;;;13.60;85.60;;;16.51;63.17;102404.06;5054252;28;20242;-51
2021/12/13 06:44:15;;;;;;;11.97;10.50;;;13.60;85.60;;;16.52;63.13;102408.41;5054154;28;20220;-49
2021/12/13 06:46:52;;;;;;;15.50;12.73;;;13.60;85.40;;;16.49;63.04;102411.38;5054215;28;20216;-52
2021/12/13 06:49:31;;;;;;;14.40;11.10;;;13.60;85.20;;;16.49;62.89;102408.72;5053707;28;20209;-52
2021/12/13 06:52:08;;;;;;;15.07;11.63;;;13.60;85.30;;;16.50;63.05;102413.00;5042027;28;20514;-50
2021/12/13 06:54:40;;;;;;;13.13;11.10;;;13.50;85.30;;;16.49;62.85;102417.53;5051903;28;20561;-51
2021/12/13 06:57:14;;;;;;;14.43;11.47;;;13.50;85.30;;;16.49;62.96;102416.69;5053752;28;20289;-51
2021/12/13 06:59:53;;;;;;;14.57;10.83;;;13.60;85.50;;;16.48;62.87;102417.69;5053079;28;20560;-54
2021/12/13 07:02:50;;;;;;;14.40;12.27;;;13.50;85.50;;;16.47;63.02;102430.16;5053335;28;20599;-53
2021/12/13 07:05:46;;;;;;;14.70;12.27;;;13.50;85.40;;;16.45;63.15;102426.81;5033418;28;20213;-50
2021/12/13 07:08:22;;;;;;;12.20;10.83;;;13.60;85.30;;;16.45;62.85;102437.44;5049080;28;20220;-52
2021/12/13 07:11:01;;;;;;;14.53;12.20;;;13.50;85.20;;;16.44;62.96;102429.66;5051409;28;20197;-50
2021/12/13 07:13:34;;;;;;;13.20;11.73;;;13.50;85.00;;;16.45;62.71;102442.78;5039595;28;20187;-51
2021/12/13 07:16:06;;;;;;;13.43;11.83;;;13.50;85.00;;;16.46;62.79;102444.44;5044017;28;20259;-51
2021/12/13 07:18:49;;;;;;;15.30;11.97;;;13.50;85.00;;;16.43;62.74;102443.94;5050021;28;20631;-53
2021/12/13 07:21:27;;;;;;;12.13;10.83;;;13.60;85.10;;;16.43;63.01;102446.59;5052087;28;20281;-51
2021/12/13 07:24:02;;;;;;;14.40;11.97;;;13.50;84.90;;;16.41;62.72;102451.25;5039693;28;20209;-49
2021/12/13 07:26:37;;;;;;;12.83;11.53;;;13.60;84.70;;;16.36;62.89;102453.59;5046979;28;20277;-50
2021/12/13 07:29:10;;;;;;;12.80;10.87;;;13.50;84.50;;;16.35;62.81;102446.63;5039806;28;20234;-50
2021/12/13 07:31:41;;;;;;;15.63;11.50;;;13.50;84.50;;;16.35;62.89;102457.28;5039722;28;20182;-54
2021/12/13 07:34:16;;;;;;;16.33;13.07;;;13.50;84.50;;;16.31;62.88;102462.06;5047929;28;20264;-53
2021/12/13 07:36:53;;;;;;;15.60;12.80;;;13.50;84.30;;;16.26;62.89;102465.25;5054328;28;20196;-53
2021/12/13 07:39:27;;;;;;;16.10;13.73;;;13.50;84.30;;;16.23;62.88;102459.47;5032607;28;20222;-50
2021/12/13 07:42:05;;;;;;;16.40;13.87;;;13.50;84.10;;;16.21;62.87;102462.25;5017919;28;20213;-52
2021/12/13 07:44:40;;;;;;;22.73;15.87;;;13.50;84.20;;;16.19;62.96;102458.94;5040377;28;20272;-52
2021/12/13 07:47:12;;;;;;;26.70;20.60;;;13.50;84.10;;;16.19;62.67;102458.94;5032665;28;20552;-52
2021/12/13 07:49:46;;;;;;;25.73;21.67;;;13.40;83.90;;;16.19;62.91;102466.91;5033233;28;20615;-54
2021/12/13 07:52:25;;;;;;;28.83;23.63;;;13.50;84.10;;;16.22;62.83;102468.41;5044681;28;20345;-52
2021/12/13 07:54:55;;;;;;;30.67;26.10;;;13.40;84.00;;;16.28;62.39;102470.41;5051127;28;20205;-51
2021/12/13 07:57:29;;;;;;;38.90;30.17;;;13.40;84.10;;;16.33;62.31;102475.22;5052103;28;20214;-53
2021/12/13 08:00:01;;;;;;;30.93;26.33;;;13.40;83.90;;;16.35;62.06;102468.75;5035032;28;20195;-53
2021/12/13 08:02:36;;;;;;;28.93;24.07;;;13.40;83.90;;;16.37;62.21;102481.84;5045760;28;20217;-52
2021/12/13 08:05:12;;;;;;;29.27;24.23;;;13.40;84.00;;;16.35;62.00;102483.84;5034829;28;20555;-50
2021/12/13 08:07:46;;;;;;;21.30;18.10;;;13.40;83.80;;;16.34;62.08;102483.00;5047009;28;20608;-54
2021/12/13 08:10:23;;;;;;;19.73;16.37;;;13.40;83.80;;;16.34;61.94;102484.84;5045773;28;20336;-52
2021/12/13 08:12:57;;;;;;;17.23;13.47;;;13.40;83.80;;;16.35;62.27;102479.38;5035349;28;20248;-51
2021/12/13 08:15:52;;;;;;;15.10;13.20;;;13.40;83.90;;;16.31;62.37;102487.84;5047751;28;20191;-52
2021/12/13 08:18:28;;;;;;;16.83;14.67;;;13.40;83.80;;;16.34;62.20;102485.66;5037743;28;20244;-49
2021/12/13 08:21:01;;;;;;;14.43;11.73;;;13.40;83.50;;;16.40;61.83;102486.84;5034269;28;20201;-50
2021/12/13 08:23:35;;;;;;;14.57;12.43;;;13.40;83.50;;;16.44;61.97;102493.47;5038407;28;20687;-48
2021/12/13 08:26:10;;;;;;;15.47;12.93;;;13.40;83.70;;;16.48;61.68;102497.44;5047564;28;20189;-50
2021/12/13 08:28:41;;;;;;;15.67;11.03;;;13.50;83.90;;;16.53;61.77;102497.78;5047019;28;20216;-49
2021/12/13 08:31:20;;;;;;;14.20;12.07;;;13.50;83.80;;;16.55;61.60;102501.09;5056224;28;20659;-49
2021/12/13 08:33:54;;;;;;;12.53;11.23;;;13.50;83.60;;;16.58;61.57;102504.25;5051646;28;20198;-48
2021/12/13 08:36:32;;;;;;;16.33;12.77;;;13.60;83.70;;;16.54;61.28;102505.59;5036677;28;20293;-49
2021/12/13 08:39:07;;;;;;;14.23;10.27;;;13.60;83.00;;;16.51;61.56;102505.06;5042441;28;20312;-52
2021/12/13 08:41:41;;;;;;;11.27;10.03;;;13.70;83.00;;;16.48;61.54;102521.34;5044607;28;20193;-50
2021/12/13 08:44:21;;;;;;;13.70;10.70;;;13.60;82.70;;;16.48;61.37;102513.38;5051755;28;20261;-51
2021/12/13 08:46:58;;;;;;;11.87;10.53;;;13.60;82.30;;;16.51;61.27;102510.38;5055513;28;20649;-50
2021/12/13 08:49:36;;;;;;;14.40;9.73;;;13.60;82.50;;;16.52;61.58;102512.91;5046826;28;20225;-49
2021/12/13 08:52:21;;;;;;;11.80;10.60;;;13.60;82.60;;;16.52;61.19;102520.06;5050739;28;20185;-48
2021/12/13 08:54:56;;;;;;;9.40;8.40;;;13.70;82.60;;;16.53;61.56;102513.72;5049679;28;20578;-48
2021/12/13 08:57:49;;;;;;;11.67;8.30;;;13.70;82.50;;;16.51;61.26;102523.69;5044863;28;20222;-51
2021/12/13 09:00:39;;;;;;;10.27;9.23;;;13.70;82.10;;;16.54;61.22;102521.56;5043197;28;20210;-47
2021/12/13 09:03:25;;;;;;;11.47;9.17;;;13.70;82.20;;;16.56;61.09;102518.72;5036975;28;20556;-49
2021/12/13 09:06:04;;;;;;;11.57;10.37;;;13.70;81.90;;;16.57;60.93;102515.88;5038223;28;20198;-50
2021/12/13 09:08:42;;;;;;;15.37;11.57;;;13.70;81.90;;;16.51;60.53;102521.88;5040686;28;20277;-50
2021/12/13 09:11:27;;;;;;;12.50;10.87;;;13.70;81.50;;;16.41;60.63;102533.66;5044751;28;20197;-49
2021/12/13 09:14:05;;;;;;;12.00;10.60;;;13.70;81.40;;;16.33;60.78;102533.69;5049170;28;20213;-52
2021/12/13 09:17:06;;;;;;;10.70;9.60;;;13.70;81.20;;;16.18;60.99;102531.69;5054891;28;20285;-52
2021/12/13 09:19:45;;;;;;;12.93;9.87;;;13.60;81.20;;;16.12;61.43;102537.66;5043910;28;20199;-50
2021/12/13 09:22:20;;;;;;;11.53;9.57;;;13.50;81.20;;;16.09;61.32;102542.50;5041231;28;20198;-51
2021/12/13 09:24:54;;;;;;;12.47;10.20;;;13.50;81.20;;;16.05;61.14;102549.97;5044418;28;20670;-49
2021/12/13 09:27:39;;;;;;;13.87;11.47;;;13.50;81.30;;;15.98;61.36;102548.97;5034798;28;20214;-52
2021/12/13 09:30:33;;;;;;;12.83;10.87;;;13.40;81.20;;;15.95;61.38;102551.13;5048317;28;20301;-51
2021/12/13 09:33:07;;;;;;;12.00;10.70;;;13.40;81.30;;;15.95;61.42;102553.78;5040787;28;20193;-50
2021/12/13 09:35:43;;;;;;;11.93;9.37;;;13.40;81.40;;;15.96;61.58;102553.59;5052573;28;20226;-50
2021/12/13 09:38:34;;;;;;;17.23;15.00;;;13.40;81.60;;;15.99;61.58;102555.94;5040207;28;20210;-50
2021/12/13 09:41:32;;;;;;;11.80;10.37;;;13.30;81.90;;;16.01;61.29;102551.28;5036357;28;20277;-50
2021/12/13 09:44:21;;;;;;;12.07;10.80;;;13.30;81.70;;;16.01;61.38;102564.56;5037644;28;20219;-51
2021/12/13 09:46:58;;;;;;;12.50;11.20;;;13.30;81.80;;;16.05;61.20;102547.28;5044203;28;20518;-49
2021/12/13 09:49:34;;;;;;;13.77;12.07;;;13.30;81.80;;;16.02;61.36;102546.81;5051123;28;20242;-50
2021/12/13 09:52:09;;;;;;;11.90;10.60;;;13.30;81.60;;;15.99;61.36;102539.16;5045152;28;20597;-50
2021/12/13 09:54:41;;;;;;;14.57;12.70;;;13.30;81.60;;;16.00;61.40;102546.97;5046111;28;20677;-51
2021/12/13 09:57:15;;;;;;;14.13;12.70;;;13.30;81.70;;;15.97;61.36;102538.50;5038681;28;20205;-52
2021/12/13 10:00:14;;;;;;;14.07;12.20;;;13.30;81.50;;;15.86;61.27;102531.69;5052095;28;20197;-50
2021/12/13 10:02:49;;;;;;;13.37;11.43;;;13.30;81.50;;;15.84;61.87;102533.69;5040793;28;20606;-52
2021/12/13 10:05:24;;;;;;;16.77;12.87;;;13.30;81.50;;;15.84;61.45;102531.03;5044300;28;20222;-49
2021/12/13 10:07:58;;;;;;;13.57;11.07;;;13.30;81.50;;;15.90;61.74;102535.66;5042262;28;20214;-50
2021/12/13 10:10:34;;;;;;;14.67;13.07;;;13.30;81.90;;;15.94;61.27;102538.84;5037017;28;20197;-47
2021/12/13 10:13:08;;;;;;;14.90;13.33;;;13.20;81.70;;;15.93;61.43;102527.38;5041625;28;20208;-48
2021/12/13 10:15:41;;;;;;;17.97;14.33;;;13.30;81.90;;;15.91;61.68;102537.34;5038901;28;20222;-49
2021/12/13 10:18:14;;;;;;;18.67;15.50;;;13.30;81.60;;;15.86;61.51;102537.00;5044607;28;20324;-49
2021/12/13 10:20:47;;;;;;;15.50;13.87;;;13.30;81.50;;;15.85;61.71;102535.34;5045423;28;20218;-53
2021/12/13 10:23:24;;;;;;;16.90;14.60;;;13.30;81.70;;;15.84;61.75;102533.69;5041802;28;20213;-49
2021/12/13 10:25:57;;;;;;;18.13;12.93;;;13.20;81.70;;;15.86;61.72;102539.66;5039151;28;20217;-49
2021/12/13 10:28:32;;;;;;;15.73;13.33;;;13.20;81.70;;;15.89;61.70;102541.16;5047549;28;20225;-50
2021/12/13 10:31:09;;;;;;;17.03;15.23;;;13.20;81.90;;;15.90;61.60;102548.94;5040345;28;20703;-50
2021/12/13 10:33:38;;;;;;;20.03;16.13;;;13.20;81.80;;;15.92;61.62;102540.81;5050544;28;20208;-52
2021/12/13 10:36:07;;;;;;;17.53;14.27;;;13.20;81.70;;;15.90;61.70;102540.97;5034024;28;20202;-49
2021/12/13 10:38:39;;;;;;;18.30;15.47;;;13.20;81.60;;;15.88;61.48;102535.00;5035557;28;20214;-51
2021/12/13 10:41:22;;;;;;;20.57;15.27;;;13.20;81.50;;;15.83;61.54;102537.31;5043822;28;20191;-51
2021/12/13 10:43:55;;;;;;;15.80;14.13;;;13.30;81.60;;;15.86;61.54;102536.16;5041485;28;20194;-50
2021/12/13 10:46:28;;;;;;;14.73;13.13;;;13.20;81.60;;;15.93;61.54;102532.69;5047779;28;20266;-51